KBQK/BQK METAR and TAF weather

Enter ICAO airport designator
Station Type Date Time Source
KBQK METAR 2021/04/14 20:55 UTC NOAA

KBQK 142055Z AUTO 16012G17KT 10SM SCT120 26/15 A3002 RMK AO2 T02570147


Station Type Date Time Source
KBQK Decoded METAR 2021/04/14 20:55 UTC NOAA

Brunswick / Glynco, GA, United States (KBQK) 31-15N 081-28W
Apr 14, 2021 - 04:55 PM EDT / 2021.04.14 2055 UTC
Wind: from the SSE (160 degrees) at 14 MPH (12 KT) gusting to 20 MPH (17 KT):0
Visibility: 10 mile(s):0
Sky conditions: partly cloudy
Temperature: 78.3 F (25.7 C)
Dew Point: 58.5 F (14.7 C)
Relative Humidity: 50%
Pressure (altimeter): 30.02 in. Hg (1016 hPa)
ob: KBQK 142055Z AUTO 16012G17KT 10SM SCT120 26/15 A3002 RMK AO2 T02570147
cycle: 21

Station Type Date Time Source
KBQK TAF UTC NOAA

Error!

Example: see airport list